sensor_id;sensor_type;location;lat;lon;timestamp;temperature;humidity
72106;SHT30;59975;47.646;18.318;2022-10-26T00:08:47;9.73;93.06
72106;SHT30;59975;47.646;18.318;2022-10-26T00:11:13;9.70;92.98
72106;SHT30;59975;47.646;18.318;2022-10-26T00:13:40;9.70;93.04
72106;SHT30;59975;47.646;18.318;2022-10-26T00:16:21;9.66;92.95
72106;SHT30;59975;47.646;18.318;2022-10-26T00:25:30;9.60;93.16
72106;SHT30;59975;47.646;18.318;2022-10-26T00:27:56;9.64;93.33
72106;SHT30;59975;47.646;18.318;2022-10-26T00:30:21;9.72;93.51
72106;SHT30;59975;47.646;18.318;2022-10-26T00:32:47;9.82;93.71
72106;SHT30;59975;47.646;18.318;2022-10-26T00:41:58;9.98;93.65
72106;SHT30;59975;47.646;18.318;2022-10-26T00:47:40;9.89;93.25
72106;SHT30;59975;47.646;18.318;2022-10-26T00:50:14;9.80;93.09
72106;SHT30;59975;47.646;18.318;2022-10-26T00:52:43;9.74;92.96
72106;SHT30;59975;47.646;18.318;2022-10-26T00:55:09;9.74;92.95
72106;SHT30;59975;47.646;18.318;2022-10-26T00:57:36;9.66;92.92
72106;SHT30;59975;47.646;18.318;2022-10-26T01:00:03;9.60;92.87
72106;SHT30;59975;47.646;18.318;2022-10-26T01:02:29;9.53;92.85
72106;SHT30;59975;47.646;18.318;2022-10-26T01:27:55;9.26;93.01
72106;SHT30;59975;47.646;18.318;2022-10-26T01:41:24;9.15;93.10
72106;SHT30;59975;47.646;18.318;2022-10-26T01:44:03;9.12;93.15
72106;SHT30;59975;47.646;18.318;2022-10-26T01:53:27;9.01;93.26
72106;SHT30;59975;47.646;18.318;2022-10-26T01:55:54;8.97;93.30
72106;SHT30;59975;47.646;18.318;2022-10-26T02:17:04;9.07;93.44
72106;SHT30;59975;47.646;18.318;2022-10-26T02:19:55;9.08;93.60
72106;SHT30;59975;47.646;18.318;2022-10-26T02:22:32;9.05;93.52
72106;SHT30;59975;47.646;18.318;2022-10-26T02:25:05;8.99;93.48
72106;SHT30;59975;47.646;18.318;2022-10-26T02:27:33;8.99;93.48
72106;SHT30;59975;47.646;18.318;2022-10-26T02:30:01;8.99;93.57
72106;SHT30;59975;47.646;18.318;2022-10-26T02:32:30;9.01;93.57
72106;SHT30;59975;47.646;18.318;2022-10-26T02:34:59;8.99;93.53
72106;SHT30;59975;47.646;18.318;2022-10-26T02:37:26;8.93;93.54
72106;SHT30;59975;47.646;18.318;2022-10-26T02:39:54;8.97;93.53
72106;SHT30;59975;47.646;18.318;2022-10-26T02:45:59;8.89;93.51
72106;SHT30;59975;47.646;18.318;2022-10-26T02:48:26;8.87;93.54
72106;SHT30;59975;47.646;18.318;2022-10-26T02:53:31;8.84;93.64
72106;SHT30;59975;47.646;18.318;2022-10-26T03:23:02;8.61;93.69
72106;SHT30;59975;47.646;18.318;2022-10-26T03:25:28;8.63;93.71
72106;SHT30;59975;47.646;18.318;2022-10-26T03:27:59;8.60;93.84
72106;SHT30;59975;47.646;18.318;2022-10-26T03:30:25;8.63;93.83
72106;SHT30;59975;47.646;18.318;2022-10-26T03:32:51;8.61;93.75
72106;SHT30;59975;47.646;18.318;2022-10-26T03:42:18;8.57;93.80
72106;SHT30;59975;47.646;18.318;2022-10-26T03:44:44;8.63;93.89
72106;SHT30;59975;47.646;18.318;2022-10-26T03:47:11;8.63;93.94
72106;SHT30;59975;47.646;18.318;2022-10-26T03:49:36;8.60;93.94
72106;SHT30;59975;47.646;18.318;2022-10-26T03:52:02;8.61;93.91
72106;SHT30;59975;47.646;18.318;2022-10-26T03:54:34;8.67;93.96
72106;SHT30;59975;47.646;18.318;2022-10-26T03:56:59;8.65;94.00
72106;SHT30;59975;47.646;18.318;2022-10-26T03:59:25;8.67;93.94
72106;SHT30;59975;47.646;18.318;2022-10-26T04:01:50;8.64;93.88
72106;SHT30;59975;47.646;18.318;2022-10-26T04:04:16;8.61;93.80
72106;SHT30;59975;47.646;18.318;2022-10-26T04:20:10;8.65;94.16
72106;SHT30;59975;47.646;18.318;2022-10-26T04:22:36;8.61;94.06
72106;SHT30;59975;47.646;18.318;2022-10-26T04:25:03;8.56;94.00
72106;SHT30;59975;47.646;18.318;2022-10-26T04:27:29;8.48;93.87
72106;SHT30;59975;47.646;18.318;2022-10-26T04:29:54;8.51;93.86
72106;SHT30;59975;47.646;18.318;2022-10-26T04:32:20;8.48;93.84
72106;SHT30;59975;47.646;18.318;2022-10-26T04:34:45;8.43;93.88
72106;SHT30;59975;47.646;18.318;2022-10-26T04:37:11;8.38;93.80
72106;SHT30;59975;47.646;18.318;2022-10-26T04:39:36;8.34;93.79
72106;SHT30;59975;47.646;18.318;2022-10-26T04:42:02;8.34;93.84
72106;SHT30;59975;47.646;18.318;2022-10-26T04:44:28;8.32;93.86
72106;SHT30;59975;47.646;18.318;2022-10-26T04:53:55;8.30;94.08
72106;SHT30;59975;47.646;18.318;2022-10-26T04:56:22;8.37;94.17
72106;SHT30;59975;47.646;18.318;2022-10-26T04:58:48;8.40;94.19
72106;SHT30;59975;47.646;18.318;2022-10-26T05:01:13;8.40;94.12
72106;SHT30;59975;47.646;18.318;2022-10-26T05:03:39;8.40;94.11
72106;SHT30;59975;47.646;18.318;2022-10-26T05:09:28;8.30;94.11
72106;SHT30;59975;47.646;18.318;2022-10-26T05:11:53;8.24;94.04
72106;SHT30;59975;47.646;18.318;2022-10-26T05:14:18;8.24;94.04
72106;SHT30;59975;47.646;18.318;2022-10-26T05:16:44;8.26;94.16
72106;SHT30;59975;47.646;18.318;2022-10-26T05:19:10;8.24;94.16
72106;SHT30;59975;47.646;18.318;2022-10-26T05:24:58;8.22;94.08
72106;SHT30;59975;47.646;18.318;2022-10-26T05:27:24;8.17;94.05
72106;SHT30;59975;47.646;18.318;2022-10-26T05:29:49;8.24;94.06
72106;SHT30;59975;47.646;18.318;2022-10-26T05:32:15;8.37;94.19
72106;SHT30;59975;47.646;18.318;2022-10-26T05:34:41;8.40;94.15
72106;SHT30;59975;47.646;18.318;2022-10-26T05:37:06;8.43;94.14
72106;SHT30;59975;47.646;18.318;2022-10-26T05:39:35;8.48;94.12
72106;SHT30;59975;47.646;18.318;2022-10-26T05:42:12;8.44;94.05
72106;SHT30;59975;47.646;18.318;2022-10-26T05:44:38;8.41;94.04
72106;SHT30;59975;47.646;18.318;2022-10-26T05:47:06;8.44;94.11
72106;SHT30;59975;47.646;18.318;2022-10-26T05:49:32;8.47;94.10
72106;SHT30;59975;47.646;18.318;2022-10-26T05:51:58;8.53;94.20
72106;SHT30;59975;47.646;18.318;2022-10-26T05:54:23;8.57;94.12
72106;SHT30;59975;47.646;18.318;2022-10-26T05:56:52;8.68;94.23
72106;SHT30;59975;47.646;18.318;2022-10-26T05:59:30;8.72;94.18
72106;SHT30;59975;47.646;18.318;2022-10-26T06:04:48;8.88;94.16
72106;SHT30;59975;47.646;18.318;2022-10-26T06:07:17;8.92;94.01
72106;SHT30;59975;47.646;18.318;2022-10-26T06:09:47;8.99;93.90
72106;SHT30;59975;47.646;18.318;2022-10-26T06:12:52;9.01;93.69
72106;SHT30;59975;47.646;18.318;2022-10-26T06:15:20;9.02;93.69
72106;SHT30;59975;47.646;18.318;2022-10-26T06:21:39;9.09;93.53
72106;SHT30;59975;47.646;18.318;2022-10-26T06:24:13;9.18;93.46
72106;SHT30;59975;47.646;18.318;2022-10-26T06:27:55;9.21;93.30
72106;SHT30;59975;47.646;18.318;2022-10-26T06:30:03;9.26;93.24
72106;SHT30;59975;47.646;18.318;2022-10-26T06:32:43;9.32;93.21
72106;SHT30;59975;47.646;18.318;2022-10-26T06:38:21;9.46;93.31
72106;SHT30;59975;47.646;18.318;2022-10-26T06:41:09;9.56;93.26
72106;SHT30;59975;47.646;18.318;2022-10-26T06:55:42;10.27;93.28
72106;SHT30;59975;47.646;18.318;2022-10-26T06:58:19;10.38;93.14
72106;SHT30;59975;47.646;18.318;2022-10-26T07:00:48;10.55;93.12
72106;SHT30;59975;47.646;18.318;2022-10-26T07:03:18;10.72;93.01
72106;SHT30;59975;47.646;18.318;2022-10-26T07:05:46;10.89;93.04
72106;SHT30;59975;47.646;18.318;2022-10-26T07:08:12;11.05;92.89
72106;SHT30;59975;47.646;18.318;2022-10-26T07:10:45;11.26;92.37
72106;SHT30;59975;47.646;18.318;2022-10-26T07:13:11;11.49;91.64
72106;SHT30;59975;47.646;18.318;2022-10-26T07:15:38;11.66;91.65
72106;SHT30;59975;47.646;18.318;2022-10-26T07:18:30;11.84;91.42
72106;SHT30;59975;47.646;18.318;2022-10-26T07:20:57;11.99;91.17
72106;SHT30;59975;47.646;18.318;2022-10-26T07:23:23;12.10;91.06
72106;SHT30;59975;47.646;18.318;2022-10-26T07:25:52;12.22;90.82
72106;SHT30;59975;47.646;18.318;2022-10-26T07:28:20;12.32;90.60
72106;SHT30;59975;47.646;18.318;2022-10-26T07:30:48;12.42;90.23
72106;SHT30;59975;47.646;18.318;2022-10-26T07:33:19;12.48;90.13
72106;SHT30;59975;47.646;18.318;2022-10-26T09:26:32;18.00;76.62
72106;SHT30;59975;47.646;18.318;2022-10-26T09:33:13;18.13;76.01
72106;SHT30;59975;47.646;18.318;2022-10-26T09:36:27;18.11;75.80
72106;SHT30;59975;47.646;18.318;2022-10-26T09:39:50;18.14;75.46
72106;SHT30;59975;47.646;18.318;2022-10-26T09:42:27;18.21;74.87
72106;SHT30;59975;47.646;18.318;2022-10-26T09:52:07;18.30;73.78
72106;SHT30;59975;47.646;18.318;2022-10-26T09:54:56;18.47;73.43
72106;SHT30;59975;47.646;18.318;2022-10-26T09:57:25;18.65;72.93
72106;SHT30;59975;47.646;18.318;2022-10-26T09:59:51;18.82;72.72
72106;SHT30;59975;47.646;18.318;2022-10-26T10:02:56;19.12;71.57
72106;SHT30;59975;47.646;18.318;2022-10-26T10:11:43;19.43;69.95
72106;SHT30;59975;47.646;18.318;2022-10-26T10:14:21;19.73;69.09
72106;SHT30;59975;47.646;18.318;2022-10-26T10:16:58;20.04;68.19
72106;SHT30;59975;47.646;18.318;2022-10-26T10:19:49;20.31;67.06
